sensor_id;sensor_type;location;lat;lon;timestamp;P1;durP1;ratioP1;P2;durP2;ratioP2
42226;SDS011;27892;52.378;13.122;2023-08-06T00:00:07;5.00;;;4.53;;
42226;SDS011;27892;52.378;13.122;2023-08-06T00:02:33;4.25;;;3.80;;
42226;SDS011;27892;52.378;13.122;2023-08-06T00:04:59;3.80;;;3.50;;
42226;SDS011;27892;52.378;13.122;2023-08-06T00:07:25;4.10;;;3.80;;
42226;SDS011;27892;52.378;13.122;2023-08-06T00:09:50;5.07;;;3.90;;
42226;SDS011;27892;52.378;13.122;2023-08-06T00:12:16;5.30;;;4.80;;
42226;SDS011;27892;52.378;13.122;2023-08-06T00:14:42;5.65;;;4.97;;
42226;SDS011;27892;52.378;13.122;2023-08-06T00:17:07;7.53;;;5.22;;
42226;SDS011;27892;52.378;13.122;2023-08-06T00:19:33;6.10;;;5.50;;
42226;SDS011;27892;52.378;13.122;2023-08-06T00:21:59;6.38;;;5.63;;
42226;SDS011;27892;52.378;13.122;2023-08-06T00:24:24;6.75;;;6.05;;
42226;SDS011;27892;52.378;13.122;2023-08-06T00:26:50;5.20;;;4.80;;
42226;SDS011;27892;52.378;13.122;2023-08-06T00:29:16;6.68;;;5.75;;
42226;SDS011;27892;52.378;13.122;2023-08-06T00:31:41;4.82;;;4.43;;
42226;SDS011;27892;52.378;13.122;2023-08-06T00:34:07;4.20;;;3.90;;
42226;SDS011;27892;52.378;13.122;2023-08-06T00:36:32;3.80;;;3.50;;
42226;SDS011;27892;52.378;13.122;2023-08-06T00:38:58;3.40;;;3.20;;
42226;SDS011;27892;52.378;13.122;2023-08-06T00:41:24;3.55;;;3.28;;
42226;SDS011;27892;52.378;13.122;2023-08-06T00:43:49;4.25;;;3.90;;
42226;SDS011;27892;52.378;13.122;2023-08-06T00:46:15;4.70;;;4.30;;
42226;SDS011;27892;52.378;13.122;2023-08-06T00:48:41;4.45;;;4.05;;
42226;SDS011;27892;52.378;13.122;2023-08-06T00:51:08;4.70;;;4.30;;
42226;SDS011;27892;52.378;13.122;2023-08-06T00:53:35;5.18;;;4.68;;
42226;SDS011;27892;52.378;13.122;2023-08-06T00:56:02;6.90;;;5.82;;
42226;SDS011;27892;52.378;13.122;2023-08-06T00:58:28;6.00;;;5.50;;
42226;SDS011;27892;52.378;13.122;2023-08-06T01:00:54;6.47;;;5.88;;
42226;SDS011;27892;52.378;13.122;2023-08-06T01:03:20;6.85;;;6.15;;
42226;SDS011;27892;52.378;13.122;2023-08-06T01:05:45;7.83;;;6.60;;
42226;SDS011;27892;52.378;13.122;2023-08-06T01:11:08;7.05;;;6.30;;
42226;SDS011;27892;52.378;13.122;2023-08-06T01:13:45;8.03;;;5.83;;
42226;SDS011;27892;52.378;13.122;2023-08-06T01:16:18;7.70;;;6.53;;
42226;SDS011;27892;52.378;13.122;2023-08-06T01:18:46;7.38;;;6.45;;
42226;SDS011;27892;52.378;13.122;2023-08-06T01:21:14;6.97;;;6.27;;
42226;SDS011;27892;52.378;13.122;2023-08-06T01:23:41;6.70;;;5.97;;
42226;SDS011;27892;52.378;13.122;2023-08-06T01:31:27;8.43;;;7.17;;
42226;SDS011;27892;52.378;13.122;2023-08-06T01:33:57;6.85;;;6.10;;
42226;SDS011;27892;52.378;13.122;2023-08-06T01:36:24;6.03;;;5.43;;
42226;SDS011;27892;52.378;13.122;2023-08-06T01:38:52;7.15;;;6.45;;
42226;SDS011;27892;52.378;13.122;2023-08-06T01:41:18;6.72;;;6.03;;
42226;SDS011;27892;52.378;13.122;2023-08-06T01:43:43;7.10;;;6.40;;
42226;SDS011;27892;52.378;13.122;2023-08-06T01:46:09;6.55;;;5.95;;
42226;SDS011;27892;52.378;13.122;2023-08-06T01:48:35;6.32;;;5.72;;
42226;SDS011;27892;52.378;13.122;2023-08-06T01:51:03;7.88;;;7.07;;
42226;SDS011;27892;52.378;13.122;2023-08-06T01:53:30;8.10;;;7.32;;
42226;SDS011;27892;52.378;13.122;2023-08-06T01:55:56;6.95;;;6.35;;
42226;SDS011;27892;52.378;13.122;2023-08-06T01:58:22;7.83;;;7.03;;
42226;SDS011;27892;52.378;13.122;2023-08-06T02:00:48;6.00;;;5.50;;
42226;SDS011;27892;52.378;13.122;2023-08-06T02:03:14;6.67;;;5.97;;
42226;SDS011;27892;52.378;13.122;2023-08-06T02:05:40;7.55;;;6.85;;
42226;SDS011;27892;52.378;13.122;2023-08-06T02:08:05;7.25;;;6.55;;
42226;SDS011;27892;52.378;13.122;2023-08-06T02:10:31;7.23;;;6.57;;
42226;SDS011;27892;52.378;13.122;2023-08-06T02:12:57;7.63;;;6.80;;
42226;SDS011;27892;52.378;13.122;2023-08-06T02:15:23;7.80;;;7.10;;
42226;SDS011;27892;52.378;13.122;2023-08-06T02:17:48;7.30;;;6.60;;
42226;SDS011;27892;52.378;13.122;2023-08-06T02:20:14;7.13;;;6.43;;
42226;SDS011;27892;52.378;13.122;2023-08-06T02:22:40;7.53;;;6.80;;
42226;SDS011;27892;52.378;13.122;2023-08-06T02:25:05;6.63;;;6.03;;
42226;SDS011;27892;52.378;13.122;2023-08-06T02:27:31;5.97;;;5.47;;
42226;SDS011;27892;52.378;13.122;2023-08-06T02:29:57;7.30;;;6.60;;
42226;SDS011;27892;52.378;13.122;2023-08-06T02:32:23;6.80;;;6.13;;
42226;SDS011;27892;52.378;13.122;2023-08-06T02:34:48;5.87;;;5.27;;
42226;SDS011;27892;52.378;13.122;2023-08-06T02:37:14;7.25;;;6.55;;
42226;SDS011;27892;52.378;13.122;2023-08-06T02:39:40;5.10;;;4.70;;
42226;SDS011;27892;52.378;13.122;2023-08-06T02:42:24;4.72;;;4.30;;
42226;SDS011;27892;52.378;13.122;2023-08-06T02:44:52;6.13;;;5.60;;
42226;SDS011;27892;52.378;13.122;2023-08-06T02:47:20;5.80;;;5.30;;
42226;SDS011;27892;52.378;13.122;2023-08-06T02:49:46;5.90;;;5.18;;
42226;SDS011;27892;52.378;13.122;2023-08-06T02:52:11;7.23;;;6.53;;
42226;SDS011;27892;52.378;13.122;2023-08-06T02:54:37;6.00;;;5.50;;
42226;SDS011;27892;52.378;13.122;2023-08-06T02:57:03;4.90;;;4.50;;
42226;SDS011;27892;52.378;13.122;2023-08-06T02:59:30;6.17;;;5.47;;
42226;SDS011;27892;52.378;13.122;2023-08-06T03:01:56;6.87;;;6.17;;
42226;SDS011;27892;52.378;13.122;2023-08-06T03:04:21;5.70;;;5.20;;
42226;SDS011;27892;52.378;13.122;2023-08-06T03:06:49;6.45;;;5.85;;
42226;SDS011;27892;52.378;13.122;2023-08-06T03:09:15;6.37;;;5.87;;
42226;SDS011;27892;52.378;13.122;2023-08-06T03:11:41;7.78;;;6.97;;
42226;SDS011;27892;52.378;13.122;2023-08-06T03:14:06;8.63;;;6.80;;
42226;SDS011;27892;52.378;13.122;2023-08-06T03:16:32;6.67;;;5.97;;
42226;SDS011;27892;52.378;13.122;2023-08-06T03:18:58;6.90;;;6.20;;
42226;SDS011;27892;52.378;13.122;2023-08-06T03:21:23;6.23;;;5.63;;
42226;SDS011;27892;52.378;13.122;2023-08-06T03:23:49;7.10;;;6.40;;
42226;SDS011;27892;52.378;13.122;2023-08-06T03:26:15;8.43;;;6.95;;
42226;SDS011;27892;52.378;13.122;2023-08-06T03:28:41;6.97;;;6.28;;
42226;SDS011;27892;52.378;13.122;2023-08-06T03:31:06;9.47;;;6.83;;
42226;SDS011;27892;52.378;13.122;2023-08-06T03:33:32;6.50;;;5.90;;
42226;SDS011;27892;52.378;13.122;2023-08-06T03:35:58;6.45;;;5.85;;
42226;SDS011;27892;52.378;13.122;2023-08-06T03:38:23;8.00;;;7.20;;
42226;SDS011;27892;52.378;13.122;2023-08-06T03:40:49;7.47;;;6.50;;
42226;SDS011;27892;52.378;13.122;2023-08-06T03:43:15;6.70;;;6.00;;
42226;SDS011;27892;52.378;13.122;2023-08-06T03:45:41;5.70;;;5.20;;
42226;SDS011;27892;52.378;13.122;2023-08-06T03:48:07;5.10;;;4.60;;
42226;SDS011;27892;52.378;13.122;2023-08-06T03:50:33;6.00;;;5.40;;
42226;SDS011;27892;52.378;13.122;2023-08-06T03:52:59;7.90;;;6.77;;
42226;SDS011;27892;52.378;13.122;2023-08-06T03:55:25;7.85;;;7.05;;
42226;SDS011;27892;52.378;13.122;2023-08-06T03:57:50;7.80;;;6.72;;
42226;SDS011;27892;52.378;13.122;2023-08-06T04:00:16;6.23;;;5.67;;
42226;SDS011;27892;52.378;13.122;2023-08-06T04:02:42;6.73;;;6.13;;
42226;SDS011;27892;52.378;13.122;2023-08-06T04:05:08;6.00;;;5.40;;
42226;SDS011;27892;52.378;13.122;2023-08-06T04:07:33;6.53;;;5.93;;
42226;SDS011;27892;52.378;13.122;2023-08-06T04:10:00;7.90;;;7.20;;
42226;SDS011;27892;52.378;13.122;2023-08-06T04:12:28;6.73;;;6.13;;
42226;SDS011;27892;52.378;13.122;2023-08-06T04:14:54;7.77;;;7.07;;
42226;SDS011;27892;52.378;13.122;2023-08-06T04:17:20;8.53;;;6.73;;
42226;SDS011;27892;52.378;13.122;2023-08-06T04:19:50;7.57;;;6.90;;
42226;SDS011;27892;52.378;13.122;2023-08-06T04:22:17;7.90;;;7.10;;
42226;SDS011;27892;52.378;13.122;2023-08-06T04:24:43;7.00;;;6.30;;
42226;SDS011;27892;52.378;13.122;2023-08-06T04:27:10;6.80;;;6.10;;
42226;SDS011;27892;52.378;13.122;2023-08-06T04:29:36;6.07;;;5.57;;
42226;SDS011;27892;52.378;13.122;2023-08-06T04:32:06;5.73;;;5.23;;
42226;SDS011;27892;52.378;13.122;2023-08-06T04:34:33;6.40;;;5.80;;
42226;SDS011;27892;52.378;13.122;2023-08-06T04:37:00;6.63;;;6.03;;
42226;SDS011;27892;52.378;13.122;2023-08-06T04:39:26;5.22;;;4.82;;
42226;SDS011;27892;52.378;13.122;2023-08-06T04:41:52;5.20;;;4.80;;
42226;SDS011;27892;52.378;13.122;2023-08-06T04:44:18;5.40;;;4.90;;
42226;SDS011;27892;52.378;13.122;2023-08-06T04:46:43;5.70;;;5.20;;
42226;SDS011;27892;52.378;13.122;2023-08-06T04:49:09;4.90;;;4.47;;
42226;SDS011;27892;52.378;13.122;2023-08-06T04:51:35;5.20;;;4.70;;
42226;SDS011;27892;52.378;13.122;2023-08-06T04:54:01;4.50;;;4.20;;
42226;SDS011;27892;52.378;13.122;2023-08-06T04:56:26;5.93;;;5.43;;
42226;SDS011;27892;52.378;13.122;2023-08-06T04:58:52;5.70;;;5.20;;
42226;SDS011;27892;52.378;13.122;2023-08-06T05:01:18;6.10;;;5.50;;
42226;SDS011;27892;52.378;13.122;2023-08-06T05:03:44;6.60;;;6.00;;
42226;SDS011;27892;52.378;13.122;2023-08-06T05:06:09;6.53;;;5.53;;
42226;SDS011;27892;52.378;13.122;2023-08-06T05:08:35;7.20;;;6.50;;
42226;SDS011;27892;52.378;13.122;2023-08-06T05:11:01;5.57;;;5.07;;
42226;SDS011;27892;52.378;13.122;2023-08-06T05:13:27;5.30;;;4.80;;
42226;SDS011;27892;52.378;13.122;2023-08-06T05:15:53;5.77;;;5.27;;
42226;SDS011;27892;52.378;13.122;2023-08-06T05:18:19;6.60;;;5.87;;
42226;SDS011;27892;52.378;13.122;2023-08-06T05:20:45;5.87;;;5.30;;
42226;SDS011;27892;52.378;13.122;2023-08-06T05:23:11;6.70;;;6.10;;
42226;SDS011;27892;52.378;13.122;2023-08-06T05:25:39;7.13;;;6.32;;
42226;SDS011;27892;52.378;13.122;2023-08-06T05:28:05;8.17;;;6.93;;
42226;SDS011;27892;52.378;13.122;2023-08-06T05:30:31;7.27;;;6.57;;
42226;SDS011;27892;52.378;13.122;2023-08-06T05:32:56;7.70;;;6.60;;
42226;SDS011;27892;52.378;13.122;2023-08-06T05:35:22;6.23;;;5.63;;
42226;SDS011;27892;52.378;13.122;2023-08-06T05:37:49;5.60;;;5.10;;
42226;SDS011;27892;52.378;13.122;2023-08-06T05:40:15;5.80;;;5.20;;
42226;SDS011;27892;52.378;13.122;2023-08-06T05:42:41;7.03;;;5.53;;
42226;SDS011;27892;52.378;13.122;2023-08-06T05:45:07;5.90;;;5.30;;
42226;SDS011;27892;52.378;13.122;2023-08-06T05:47:33;5.73;;;5.23;;
42226;SDS011;27892;52.378;13.122;2023-08-06T05:49:59;4.75;;;4.35;;
42226;SDS011;27892;52.378;13.122;2023-08-06T05:52:25;4.50;;;4.13;;
42226;SDS011;27892;52.378;13.122;2023-08-06T05:54:50;4.27;;;3.90;;
42226;SDS011;27892;52.378;13.122;2023-08-06T05:57:16;4.00;;;3.70;;
42226;SDS011;27892;52.378;13.122;2023-08-06T05:59:42;3.17;;;2.97;;
42226;SDS011;27892;52.378;13.122;2023-08-06T06:02:08;3.57;;;3.30;;
42226;SDS011;27892;52.378;13.122;2023-08-06T06:04:34;3.30;;;3.10;;
42226;SDS011;27892;52.378;13.122;2023-08-06T06:06:59;2.67;;;2.47;;
42226;SDS011;27892;52.378;13.122;2023-08-06T06:09:25;2.90;;;2.70;;
42226;SDS011;27892;52.378;13.122;2023-08-06T06:11:51;2.83;;;2.53;;
42226;SDS011;27892;52.378;13.122;2023-08-06T06:14:19;3.17;;;2.97;;
42226;SDS011;27892;52.378;13.122;2023-08-06T06:16:45;3.65;;;3.35;;
42226;SDS011;27892;52.378;13.122;2023-08-06T06:19:11;5.07;;;4.67;;
42226;SDS011;27892;52.378;13.122;2023-08-06T06:21:37;5.75;;;5.20;;
42226;SDS011;27892;52.378;13.122;2023-08-06T06:24:04;5.68;;;5.18;;
42226;SDS011;27892;52.378;13.122;2023-08-06T06:26:31;5.05;;;4.55;;
42226;SDS011;27892;52.378;13.122;2023-08-06T06:28:57;6.05;;;5.55;;
42226;SDS011;27892;52.378;13.122;2023-08-06T06:31:23;5.65;;;5.15;;
42226;SDS011;27892;52.378;13.122;2023-08-06T06:33:49;6.45;;;5.85;;
42226;SDS011;27892;52.378;13.122;2023-08-06T06:36:14;7.05;;;6.35;;
42226;SDS011;27892;52.378;13.122;2023-08-06T06:38:40;4.95;;;4.55;;
42226;SDS011;27892;52.378;13.122;2023-08-06T06:41:06;4.60;;;4.25;;
42226;SDS011;27892;52.378;13.122;2023-08-06T06:43:32;4.90;;;4.50;;
42226;SDS011;27892;52.378;13.122;2023-08-06T06:45:58;4.85;;;4.38;;
42226;SDS011;27892;52.378;13.122;2023-08-06T06:48:28;4.65;;;4.25;;
42226;SDS011;27892;52.378;13.122;2023-08-06T06:50:55;5.40;;;4.90;;
42226;SDS011;27892;52.378;13.122;2023-08-06T06:53:21;4.38;;;4.07;;
42226;SDS011;27892;52.378;13.122;2023-08-06T06:55:55;3.95;;;3.65;;
42226;SDS011;27892;52.378;13.122;2023-08-06T06:58:21;4.25;;;3.92;;
42226;SDS011;27892;52.378;13.122;2023-08-06T07:00:47;3.20;;;3.00;;
42226;SDS011;27892;52.378;13.122;2023-08-06T07:03:16;3.63;;;3.33;;
42226;SDS011;27892;52.378;13.122;2023-08-06T07:05:44;3.90;;;3.60;;
42226;SDS011;27892;52.378;13.122;2023-08-06T07:08:10;3.50;;;3.20;;
42226;SDS011;27892;52.378;13.122;2023-08-06T07:10:36;3.30;;;3.10;;
42226;SDS011;27892;52.378;13.122;2023-08-06T07:13:02;3.83;;;3.53;;
42226;SDS011;27892;52.378;13.122;2023-08-06T07:15:28;7.63;;;6.93;;
42226;SDS011;27892;52.378;13.122;2023-08-06T07:17:54;7.20;;;6.50;;
42226;SDS011;27892;52.378;13.122;2023-08-06T07:20:20;6.82;;;5.85;;
42226;SDS011;27892;52.378;13.122;2023-08-06T07:22:46;7.25;;;6.55;;
42226;SDS011;27892;52.378;13.122;2023-08-06T07:25:11;6.88;;;6.18;;
42226;SDS011;27892;52.378;13.122;2023-08-06T07:27:38;6.07;;;5.47;;
42226;SDS011;27892;52.378;13.122;2023-08-06T07:30:04;6.00;;;5.40;;
42226;SDS011;27892;52.378;13.122;2023-08-06T07:32:30;4.80;;;4.40;;
42226;SDS011;27892;52.378;13.122;2023-08-06T07:34:56;3.95;;;3.65;;
42226;SDS011;27892;52.378;13.122;2023-08-06T07:37:25;3.40;;;3.13;;
42226;SDS011;27892;52.378;13.122;2023-08-06T07:39:54;5.47;;;4.97;;
42226;SDS011;27892;52.378;13.122;2023-08-06T07:42:20;5.72;;;5.22;;
42226;SDS011;27892;52.378;13.122;2023-08-06T07:44:53;5.15;;;4.53;;
42226;SDS011;27892;52.378;13.122;2023-08-06T07:47:23;7.60;;;6.90;;
42226;SDS011;27892;52.378;13.122;2023-08-06T07:49:49;7.35;;;6.65;;
42226;SDS011;27892;52.378;13.122;2023-08-06T07:52:14;5.45;;;4.95;;
42226;SDS011;27892;52.378;13.122;2023-08-06T07:54:40;4.90;;;4.50;;
42226;SDS011;27892;52.378;13.122;2023-08-06T07:57:06;4.28;;;3.97;;
42226;SDS011;27892;52.378;13.122;2023-08-06T07:59:32;4.07;;;3.78;;
42226;SDS011;27892;52.378;13.122;2023-08-06T08:01:57;4.13;;;3.83;;
42226;SDS011;27892;52.378;13.122;2023-08-06T08:04:23;4.50;;;4.10;;
42226;SDS011;27892;52.378;13.122;2023-08-06T08:06:49;5.70;;;5.18;;
42226;SDS011;27892;52.378;13.122;2023-08-06T08:09:15;5.75;;;5.25;;
42226;SDS011;27892;52.378;13.122;2023-08-06T08:11:41;4.80;;;4.40;;
42226;SDS011;27892;52.378;13.122;2023-08-06T08:14:07;5.78;;;5.20;;
42226;SDS011;27892;52.378;13.122;2023-08-06T08:16:33;4.85;;;4.45;;
42226;SDS011;27892;52.378;13.122;2023-08-06T08:18:59;4.45;;;4.05;;
42226;SDS011;27892;52.378;13.122;2023-08-06T08:21:24;4.10;;;3.80;;
42226;SDS011;27892;52.378;13.122;2023-08-06T08:23:50;5.00;;;4.60;;
42226;SDS011;27892;52.378;13.122;2023-08-06T08:26:16;4.88;;;4.47;;
42226;SDS011;27892;52.378;13.122;2023-08-06T08:28:42;4.60;;;4.20;;
42226;SDS011;27892;52.378;13.122;2023-08-06T08:31:08;4.47;;;4.07;;
42226;SDS011;27892;52.378;13.122;2023-08-06T08:33:35;4.18;;;3.88;;
42226;SDS011;27892;52.378;13.122;2023-08-06T08:36:00;4.13;;;3.72;;
42226;SDS011;27892;52.378;13.122;2023-08-06T08:38:26;3.50;;;3.30;;
42226;SDS011;27892;52.378;13.122;2023-08-06T08:40:53;3.40;;;3.20;;
42226;SDS011;27892;52.378;13.122;2023-08-06T08:43:22;4.20;;;3.90;;
42226;SDS011;27892;52.378;13.122;2023-08-06T08:45:52;4.80;;;4.40;;
42226;SDS011;27892;52.378;13.122;2023-08-06T08:48:24;5.60;;;5.10;;
42226;SDS011;27892;52.378;13.122;2023-08-06T08:50:50;5.57;;;5.07;;
42226;SDS011;27892;52.378;13.122;2023-08-06T08:53:17;5.30;;;4.90;;
42226;SDS011;27892;52.378;13.122;2023-08-06T08:55:43;5.55;;;5.07;;
42226;SDS011;27892;52.378;13.122;2023-08-06T08:58:13;6.68;;;6.07;;
42226;SDS011;27892;52.378;13.122;2023-08-06T09:00:39;4.93;;;4.47;;
42226;SDS011;27892;52.378;13.122;2023-08-06T09:03:10;4.18;;;3.78;;
42226;SDS011;27892;52.378;13.122;2023-08-06T09:05:36;3.60;;;3.40;;
42226;SDS011;27892;52.378;13.122;2023-08-06T09:08:08;3.78;;;3.47;;
42226;SDS011;27892;52.378;13.122;2023-08-06T09:10:36;4.20;;;3.90;;
42226;SDS011;27892;52.378;13.122;2023-08-06T09:13:03;4.35;;;3.95;;
42226;SDS011;27892;52.378;13.122;2023-08-06T09:15:29;4.47;;;4.07;;
42226;SDS011;27892;52.378;13.122;2023-08-06T09:17:55;4.07;;;3.78;;
42226;SDS011;27892;52.378;13.122;2023-08-06T09:20:21;3.85;;;3.55;;
42226;SDS011;27892;52.378;13.122;2023-08-06T09:22:47;3.55;;;3.25;;
42226;SDS011;27892;52.378;13.122;2023-08-06T09:25:23;3.22;;;3.03;;
42226;SDS011;27892;52.378;13.122;2023-08-06T09:27:50;2.83;;;2.63;;
42226;SDS011;27892;52.378;13.122;2023-08-06T09:30:30;3.10;;;2.90;;
42226;SDS011;27892;52.378;13.122;2023-08-06T09:32:57;2.40;;;2.30;;
42226;SDS011;27892;52.378;13.122;2023-08-06T09:35:22;3.03;;;2.83;;
42226;SDS011;27892;52.378;13.122;2023-08-06T09:37:48;3.03;;;2.83;;
42226;SDS011;27892;52.378;13.122;2023-08-06T09:40:30;3.63;;;3.40;;
42226;SDS011;27892;52.378;13.122;2023-08-06T09:42:57;3.78;;;3.47;;
42226;SDS011;27892;52.378;13.122;2023-08-06T09:45:28;4.35;;;3.95;;
42226;SDS011;27892;52.378;13.122;2023-08-06T09:47:56;3.28;;;3.08;;
42226;SDS011;27892;52.378;13.122;2023-08-06T09:50:22;3.20;;;3.00;;
42226;SDS011;27892;52.378;13.122;2023-08-06T09:52:52;3.17;;;2.97;;
42226;SDS011;27892;52.378;13.122;2023-08-06T09:55:18;3.45;;;3.15;;
42226;SDS011;27892;52.378;13.122;2023-08-06T09:57:44;3.05;;;2.85;;
42226;SDS011;27892;52.378;13.122;2023-08-06T10:00:11;2.90;;;2.70;;
42226;SDS011;27892;52.378;13.122;2023-08-06T10:02:38;2.70;;;2.58;;
42226;SDS011;27892;52.378;13.122;2023-08-06T10:05:06;3.38;;;3.17;;
42226;SDS011;27892;52.378;13.122;2023-08-06T10:07:33;3.55;;;3.25;;
42226;SDS011;27892;52.378;13.122;2023-08-06T10:10:00;3.75;;;3.45;;
42226;SDS011;27892;52.378;13.122;2023-08-06T10:12:26;3.88;;;3.58;;
42226;SDS011;27892;52.378;13.122;2023-08-06T10:14:55;3.38;;;3.17;;
42226;SDS011;27892;52.378;13.122;2023-08-06T10:17:24;3.28;;;3.08;;
42226;SDS011;27892;52.378;13.122;2023-08-06T10:19:50;3.20;;;3.00;;
42226;SDS011;27892;52.378;13.122;2023-08-06T10:22:19;3.65;;;3.45;;
42226;SDS011;27892;52.378;13.122;2023-08-06T10:24:52;4.20;;;3.90;;
42226;SDS011;27892;52.378;13.122;2023-08-06T10:27:29;3.70;;;3.40;;
42226;SDS011;27892;52.378;13.122;2023-08-06T10:32:53;3.30;;;3.10;;
42226;SDS011;27892;52.378;13.122;2023-08-06T10:38:21;3.67;;;3.30;;
42226;SDS011;27892;52.378;13.122;2023-08-06T10:45:53;3.30;;;3.10;;
42226;SDS011;27892;52.378;13.122;2023-08-06T10:51:09;3.22;;;3.03;;
42226;SDS011;27892;52.378;13.122;2023-08-06T10:53:37;4.40;;;4.10;;
42226;SDS011;27892;52.378;13.122;2023-08-06T10:56:13;3.83;;;3.53;;
42226;SDS011;27892;52.378;13.122;2023-08-06T10:58:43;3.42;;;3.20;;
42226;SDS011;27892;52.378;13.122;2023-08-06T11:01:10;3.25;;;3.05;;
42226;SDS011;27892;52.378;13.122;2023-08-06T11:03:36;3.13;;;2.92;;
42226;SDS011;27892;52.378;13.122;2023-08-06T11:06:02;3.15;;;2.95;;
42226;SDS011;27892;52.378;13.122;2023-08-06T11:08:33;3.10;;;2.90;;
42226;SDS011;27892;52.378;13.122;2023-08-06T11:11:10;2.95;;;2.75;;
42226;SDS011;27892;52.378;13.122;2023-08-06T11:13:38;2.90;;;2.70;;
42226;SDS011;27892;52.378;13.122;2023-08-06T11:16:05;2.80;;;2.60;;
42226;SDS011;27892;52.378;13.122;2023-08-06T11:18:32;2.90;;;2.70;;
42226;SDS011;27892;52.378;13.122;2023-08-06T11:20:58;2.60;;;2.47;;
42226;SDS011;27892;52.378;13.122;2023-08-06T11:23:26;2.55;;;2.45;;
42226;SDS011;27892;52.378;13.122;2023-08-06T11:25:53;2.53;;;2.42;;
42226;SDS011;27892;52.378;13.122;2023-08-06T11:28:20;2.90;;;2.70;;
42226;SDS011;27892;52.378;13.122;2023-08-06T11:30:49;2.40;;;2.20;;
42226;SDS011;27892;52.378;13.122;2023-08-06T11:33:19;2.58;;;2.42;;
42226;SDS011;27892;52.378;13.122;2023-08-06T11:35:55;2.75;;;2.58;;
42226;SDS011;27892;52.378;13.122;2023-08-06T11:38:21;3.35;;;3.15;;
42226;SDS011;27892;52.378;13.122;2023-08-06T11:40:50;3.17;;;2.97;;
42226;SDS011;27892;52.378;13.122;2023-08-06T11:43:17;2.90;;;2.70;;
42226;SDS011;27892;52.378;13.122;2023-08-06T11:45:45;3.08;;;2.88;;
42226;SDS011;27892;52.378;13.122;2023-08-06T11:48:11;3.85;;;3.45;;
42226;SDS011;27892;52.378;13.122;2023-08-06T11:50:37;3.75;;;3.45;;
42226;SDS011;27892;52.378;13.122;2023-08-06T11:53:06;3.78;;;3.47;;
42226;SDS011;27892;52.378;13.122;2023-08-06T11:55:32;3.25;;;3.05;;
42226;SDS011;27892;52.378;13.122;2023-08-06T11:57:59;3.40;;;3.20;;
42226;SDS011;27892;52.378;13.122;2023-08-06T12:00:29;3.25;;;3.05;;
42226;SDS011;27892;52.378;13.122;2023-08-06T12:02:55;3.20;;;3.00;;
42226;SDS011;27892;52.378;13.122;2023-08-06T12:05:22;2.92;;;2.72;;
42226;SDS011;27892;52.378;13.122;2023-08-06T12:07:53;3.33;;;3.08;;
42226;SDS011;27892;52.378;13.122;2023-08-06T12:10:23;3.13;;;2.92;;
42226;SDS011;27892;52.378;13.122;2023-08-06T12:12:51;3.78;;;3.47;;
42226;SDS011;27892;52.378;13.122;2023-08-06T12:15:16;3.67;;;3.38;;
42226;SDS011;27892;52.378;13.122;2023-08-06T12:17:43;3.40;;;3.17;;
42226;SDS011;27892;52.378;13.122;2023-08-06T12:20:09;3.22;;;3.03;;
42226;SDS011;27892;52.378;13.122;2023-08-06T12:22:35;3.90;;;3.60;;
42226;SDS011;27892;52.378;13.122;2023-08-06T12:25:04;3.90;;;3.60;;
42226;SDS011;27892;52.378;13.122;2023-08-06T12:27:38;3.20;;;3.00;;
42226;SDS011;27892;52.378;13.122;2023-08-06T12:30:06;3.13;;;2.92;;
42226;SDS011;27892;52.378;13.122;2023-08-06T12:32:32;3.42;;;3.22;;
42226;SDS011;27892;52.378;13.122;2023-08-06T12:34:58;3.13;;;2.92;;
42226;SDS011;27892;52.378;13.122;2023-08-06T12:37:25;3.00;;;2.80;;
42226;SDS011;27892;52.378;13.122;2023-08-06T12:39:51;2.50;;;2.40;;
42226;SDS011;27892;52.378;13.122;2023-08-06T12:42:17;3.42;;;3.22;;
42226;SDS011;27892;52.378;13.122;2023-08-06T12:44:42;3.40;;;3.20;;
42226;SDS011;27892;52.378;13.122;2023-08-06T12:47:08;2.70;;;2.60;;
42226;SDS011;27892;52.378;13.122;2023-08-06T12:49:34;3.10;;;2.90;;
42226;SDS011;27892;52.378;13.122;2023-08-06T12:52:00;3.45;;;3.25;;
42226;SDS011;27892;52.378;13.122;2023-08-06T12:54:26;2.78;;;2.65;;
42226;SDS011;27892;52.378;13.122;2023-08-06T12:56:52;3.70;;;3.40;;
42226;SDS011;27892;52.378;13.122;2023-08-06T12:59:19;3.65;;;3.40;;
42226;SDS011;27892;52.378;13.122;2023-08-06T13:01:45;3.40;;;3.20;;
42226;SDS011;27892;52.378;13.122;2023-08-06T13:04:11;3.45;;;3.25;;
42226;SDS011;27892;52.378;13.122;2023-08-06T13:06:37;5.15;;;4.60;;
42226;SDS011;27892;52.378;13.122;2023-08-06T13:09:11;5.28;;;4.82;;
42226;SDS011;27892;52.378;13.122;2023-08-06T13:11:38;4.55;;;4.15;;
42226;SDS011;27892;52.378;13.122;2023-08-06T13:14:05;4.00;;;3.70;;
42226;SDS011;27892;52.378;13.122;2023-08-06T13:16:32;3.58;;;3.38;;
42226;SDS011;27892;52.378;13.122;2023-08-06T13:18:58;3.05;;;2.85;;
42226;SDS011;27892;52.378;13.122;2023-08-06T13:21:30;3.35;;;3.15;;
42226;SDS011;27892;52.378;13.122;2023-08-06T13:23:57;3.70;;;3.47;;
42226;SDS011;27892;52.378;13.122;2023-08-06T13:26:22;3.90;;;3.60;;
42226;SDS011;27892;52.378;13.122;2023-08-06T13:28:48;3.70;;;3.50;;
42226;SDS011;27892;52.378;13.122;2023-08-06T13:31:14;3.17;;;2.97;;
42226;SDS011;27892;52.378;13.122;2023-08-06T13:33:40;3.80;;;3.50;;
42226;SDS011;27892;52.378;13.122;2023-08-06T13:36:05;3.50;;;3.30;;
42226;SDS011;27892;52.378;13.122;2023-08-06T13:38:31;3.60;;;3.40;;
42226;SDS011;27892;52.378;13.122;2023-08-06T13:40:57;3.58;;;3.35;;
42226;SDS011;27892;52.378;13.122;2023-08-06T13:43:24;3.63;;;3.33;;
42226;SDS011;27892;52.378;13.122;2023-08-06T13:45:50;3.00;;;2.80;;
42226;SDS011;27892;52.378;13.122;2023-08-06T13:48:15;2.58;;;2.38;;
42226;SDS011;27892;52.378;13.122;2023-08-06T13:50:41;2.40;;;2.20;;
42226;SDS011;27892;52.378;13.122;2023-08-06T13:53:06;2.45;;;2.25;;
42226;SDS011;27892;52.378;13.122;2023-08-06T13:55:32;2.13;;;2.03;;
42226;SDS011;27892;52.378;13.122;2023-08-06T13:57:58;2.22;;;2.03;;
42226;SDS011;27892;52.378;13.122;2023-08-06T14:00:23;2.45;;;2.10;;
42226;SDS011;27892;52.378;13.122;2023-08-06T14:02:49;3.15;;;2.35;;
42226;SDS011;27892;52.378;13.122;2023-08-06T14:05:15;2.90;;;2.50;;
42226;SDS011;27892;52.378;13.122;2023-08-06T14:07:41;12.82;;;9.63;;
42226;SDS011;27892;52.378;13.122;2023-08-06T14:10:06;30.45;;;20.67;;
42226;SDS011;27892;52.378;13.122;2023-08-06T14:12:34;20.77;;;15.05;;
42226;SDS011;27892;52.378;13.122;2023-08-06T14:15:00;13.40;;;10.73;;
42226;SDS011;27892;52.378;13.122;2023-08-06T14:17:27;9.48;;;7.47;;
42226;SDS011;27892;52.378;13.122;2023-08-06T14:19:52;4.20;;;3.80;;
42226;SDS011;27892;52.378;13.122;2023-08-06T14:22:18;3.30;;;3.00;;
42226;SDS011;27892;52.378;13.122;2023-08-06T14:24:43;3.65;;;2.92;;
42226;SDS011;27892;52.378;13.122;2023-08-06T14:27:09;3.22;;;2.92;;
42226;SDS011;27892;52.378;13.122;2023-08-06T14:29:35;3.25;;;2.95;;
42226;SDS011;27892;52.378;13.122;2023-08-06T14:32:00;3.15;;;2.63;;
42226;SDS011;27892;52.378;13.122;2023-08-06T14:34:26;3.30;;;3.00;;
42226;SDS011;27892;52.378;13.122;2023-08-06T14:36:52;4.05;;;3.63;;
42226;SDS011;27892;52.378;13.122;2023-08-06T14:39:18;12.55;;;9.27;;
42226;SDS011;27892;52.378;13.122;2023-08-06T14:41:43;8.35;;;6.57;;
42226;SDS011;27892;52.378;13.122;2023-08-06T14:44:09;4.90;;;4.40;;
42226;SDS011;27892;52.378;13.122;2023-08-06T14:46:35;4.28;;;3.50;;
42226;SDS011;27892;52.378;13.122;2023-08-06T14:49:00;3.30;;;3.00;;
42226;SDS011;27892;52.378;13.122;2023-08-06T14:51:26;3.00;;;2.70;;